Terminal Aerodrome Forecast
Issued by NWS

Home | Current Version | Previous Version | Text Only | Print | Product List | Glossary On
Versions: 1 2 3 4 5 6 7 8 9 10 11 12 13 14 15 16 17 18
000
FTUS43 KIND 231536 AAA
TAFHUF
TAF AMD
KHUF 231536Z 2316/2412 27010KT 2SM BR VCSH OVC004
     FM231700 30011KT 4SM SHRA BR OVC010
     FM232200 28009KT 6SM SHRA OVC050
     FM240000 23006KT P6SM VCSH BKN100
     FM240500 26007KT P6SM VCSH BKN030=

USA.gov is the U.S. government's official web portal to all federal, state and local government web resources and services.